Time;durP1;ratioP1;P1;durP2;ratioP2;P2;SDS_P1;SDS_P2;PMS_P1;PMS_P2;Temp;Humidity;BMP_temperature;BMP_pressure;BME280_temperature;BME280_humidity;BME280_pressure;Samples;Min_cycle;Max_cycle;Signal;HPM_P1;HPM_P2
2023/07/04 00:01:17;;;;;;;4.20;3.90;;;25.20;99.90;;;;;;5035354;28;20021;-59
2023/07/04 00:03:45;;;;;;;4.05;3.67;;;25.20;1.00;;;;;;5035395;28;20561;-60
2023/07/04 00:06:14;;;;;;;4.15;3.78;;;25.20;99.90;;;;;;5034870;28;20075;-60
2023/07/04 00:08:40;;;;;;;4.15;3.75;;;25.00;1.00;;;;;;5035079;28;20437;-59
2023/07/04 00:11:07;;;;;;;3.55;3.25;;;24.90;1.00;;;;;;5033568;28;20030;-59
2023/07/04 00:13:35;;;;;;;4.72;3.40;;;24.90;1.00;;;;;;5035655;28;20034;-59
2023/07/04 00:16:01;;;;;;;4.90;3.70;;;25.10;1.00;;;;;;5034811;28;20105;-59
2023/07/04 00:18:28;;;;;;;4.55;4.15;;;25.10;1.00;;;;;;5035592;28;20044;-59
2023/07/04 00:20:58;;;;;;;5.00;4.57;;;25.10;1.00;;;;;;5034763;28;20117;-59
2023/07/04 00:23:26;;;;;;;5.18;4.43;;;25.00;1.00;;;;;;5035207;28;20081;-59
2023/07/04 00:26:42;;;;;;;4.95;4.45;;;25.10;1.00;;;;;;5030163;28;20101;-59
2023/07/04 00:29:07;;;;;;;5.10;4.28;;;25.30;1.00;;;;;;5031645;28;20033;-59
2023/07/04 00:31:33;;;;;;;6.07;5.10;;;25.20;1.00;;;;;;5033968;28;20088;-59
2023/07/04 00:33:58;;;;;;;7.65;5.03;;;25.20;1.00;;;;;;5034339;28;20769;-60
2023/07/04 00:36:24;;;;;;;7.20;5.70;;;25.20;1.00;;;;;;5034902;28;20045;-59
2023/07/04 00:38:56;;;;;;;6.97;6.43;;;24.90;1.00;;;;;;5034608;28;20030;-59
2023/07/04 00:41:27;;;;;;;7.47;6.05;;;25.00;1.00;;;;;;5034777;28;20018;-59
2023/07/04 00:44:12;;;;;;;10.55;6.95;;;25.00;1.00;;;;;;5034106;28;20026;-59
2023/07/04 00:46:45;;;;;;;7.18;5.97;;;24.90;1.00;;;;;;5032493;28;20112;-59
2023/07/04 00:49:18;;;;;;;8.88;7.65;;;25.00;1.00;;;;;;5034680;28;20031;-59
2023/07/04 00:52:06;;;;;;;7.60;6.90;;;25.00;1.00;;;;;;5034140;28;20048;-59
2023/07/04 00:54:41;;;;;;;8.25;7.40;;;24.90;1.00;;;;;;5034726;28;20116;-59
2023/07/04 00:57:08;;;;;;;10.10;9.07;;;24.90;1.00;;;;;;5033017;28;20028;-59
2023/07/04 00:59:43;;;;;;;10.20;9.20;;;24.80;1.00;;;;;;5033604;28;20039;-59
2023/07/04 01:02:10;;;;;;;10.45;9.45;;;24.80;1.00;;;;;;5029114;28;20060;-59
2023/07/04 01:04:36;;;;;;;10.38;9.45;;;24.70;1.00;;;;;;5034723;28;20030;-60
2023/07/04 01:07:11;;;;;;;11.50;10.40;;;24.80;1.00;;;;;;5033564;28;20482;-59
2023/07/04 01:09:39;;;;;;;10.70;9.77;;;24.80;1.00;;;;;;5034450;28;20025;-59
2023/07/04 01:12:06;;;;;;;11.55;10.45;;;24.80;1.00;;;;;;5033053;28;20041;-60
2023/07/04 01:14:32;;;;;;;12.20;11.10;;;24.80;1.00;;;;;;5032981;28;20028;-59
2023/07/04 01:16:58;;;;;;;13.80;12.45;;;24.80;1.00;;;;;;5032448;28;20378;-59
2023/07/04 01:19:30;;;;;;;13.77;12.35;;;24.90;1.00;;;;;;5032776;28;20017;-59
2023/07/04 01:22:47;;;;;;;12.48;11.15;;;24.80;1.00;;;;;;5032897;28;20151;-59
2023/07/04 01:25:25;;;;;;;14.40;12.90;;;24.80;1.00;;;;;;5020114;28;20387;-60
2023/07/04 01:27:55;;;;;;;13.02;11.73;;;24.80;1.00;;;;;;5032244;28;20034;-59
2023/07/04 01:30:22;;;;;;;15.90;13.77;;;24.70;1.00;;;;;;5033160;28;20065;-60
2023/07/04 01:32:52;;;;;;;16.80;15.13;;;24.70;1.00;;;;;;5030735;28;20029;-59
2023/07/04 01:35:19;;;;;;;14.43;12.95;;;24.50;1.00;;;;;;5031751;28;20525;-59
2023/07/04 01:37:45;;;;;;;14.82;13.40;;;24.70;1.00;;;;;;5032594;28;20053;-59
2023/07/04 01:40:12;;;;;;;15.48;13.85;;;24.70;1.00;;;;;;5033026;28;20072;-59
2023/07/04 01:42:38;;;;;;;15.23;13.70;;;24.80;1.00;;;;;;5032273;28;20083;-59
2023/07/04 01:45:06;;;;;;;14.82;13.32;;;24.70;1.00;;;;;;5032698;28;20092;-59
2023/07/04 01:47:34;;;;;;;15.15;13.65;;;24.80;1.00;;;;;;5031464;28;20119;-59
2023/07/04 01:50:01;;;;;;;14.82;13.38;;;24.90;1.00;;;;;;5033732;28;20064;-59
2023/07/04 01:52:28;;;;;;;16.17;14.52;;;24.80;1.00;;;;;;5033237;28;20029;-59
2023/07/04 01:54:54;;;;;;;16.77;14.98;;;24.80;1.00;;;;;;5032210;28;20029;-59
2023/07/04 01:57:20;;;;;;;16.23;14.60;;;24.80;1.00;;;;;;5032666;28;20055;-59
2023/07/04 01:59:46;;;;;;;14.48;13.00;;;24.80;1.00;;;;;;5015211;28;20061;-60
2023/07/04 02:02:12;;;;;;;19.10;17.10;;;25.00;1.00;;;;;;5032651;28;20029;-59
2023/07/04 02:04:37;;;;;;;19.60;17.65;;;24.80;1.00;;;;;;5033261;28;20505;-59
2023/07/04 02:07:04;;;;;;;21.27;19.13;;;24.60;1.00;;;;;;5031887;28;20023;-59
2023/07/04 02:09:29;;;;;;;20.30;16.92;;;24.60;1.00;;;;;;5033391;28;20127;-59
2023/07/04 02:11:55;;;;;;;18.35;16.55;;;24.70;1.00;;;;;;5032636;28;20116;-60
2023/07/04 02:14:21;;;;;;;18.45;16.50;;;24.60;1.00;;;;;;5032603;28;20034;-59
2023/07/04 02:16:46;;;;;;;17.63;15.82;;;24.60;1.00;;;;;;5033216;28;20033;-59
2023/07/04 02:19:12;;;;;;;18.83;16.95;;;24.80;1.00;;;;;;5032813;28;20109;-59
2023/07/04 02:21:38;;;;;;;18.20;16.48;;;24.70;1.00;;;;;;5032681;28;20029;-59
2023/07/04 02:24:04;;;;;;;17.42;15.73;;;24.70;1.00;;;;;;5033182;28;20021;-59
2023/07/04 02:26:32;;;;;;;16.02;14.52;;;24.60;1.00;;;;;;5032032;28;20412;-59
2023/07/04 02:28:58;;;;;;;13.77;12.38;;;24.60;1.00;;;;;;5032898;28;20057;-59
2023/07/04 02:31:24;;;;;;;13.38;11.30;;;24.70;1.00;;;;;;5032711;28;20084;-59
2023/07/04 02:33:50;;;;;;;11.20;9.93;;;24.60;1.00;;;;;;5032316;28;20086;-60
2023/07/04 02:36:16;;;;;;;11.25;10.00;;;24.70;1.00;;;;;;5032381;28;20041;-59
2023/07/04 02:38:42;;;;;;;11.00;9.90;;;24.80;1.00;;;;;;5032850;28;20483;-59
2023/07/04 02:41:09;;;;;;;11.30;10.20;;;24.80;1.00;;;;;;5032152;28;20021;-59
2023/07/04 02:43:35;;;;;;;9.93;9.00;;;24.60;1.00;;;;;;5032265;28;20026;-59
2023/07/04 02:46:02;;;;;;;10.23;9.32;;;24.70;1.00;;;;;;5031932;28;20500;-59
2023/07/04 02:48:28;;;;;;;9.90;8.75;;;24.60;1.00;;;;;;5032954;28;20030;-59
2023/07/04 02:50:53;;;;;;;9.77;8.77;;;24.70;1.00;;;;;;5032195;28;20045;-59
2023/07/04 02:53:22;;;;;;;11.45;10.38;;;24.70;1.00;;;;;;5031986;28;20034;-60
2023/07/04 02:55:52;;;;;;;10.00;8.77;;;24.50;1.00;;;;;;5031458;28;20026;-59
2023/07/04 02:58:18;;;;;;;10.27;9.38;;;24.60;1.00;;;;;;5028706;28;20475;-60
2023/07/04 03:00:46;;;;;;;10.18;9.10;;;24.60;1.00;;;;;;5030158;28;20036;-59
2023/07/04 03:03:11;;;;;;;10.90;9.50;;;24.50;1.00;;;;;;5029456;28;20145;-60
2023/07/04 03:05:37;;;;;;;11.70;10.60;;;24.50;1.00;;;;;;5032583;28;20072;-59
2023/07/04 03:08:04;;;;;;;10.75;9.65;;;24.50;1.00;;;;;;5031479;28;20445;-60
2023/07/04 03:10:30;;;;;;;10.45;9.38;;;24.60;1.00;;;;;;5032468;28;20045;-59
2023/07/04 03:12:55;;;;;;;10.40;9.38;;;24.40;1.00;;;;;;5031019;28;20415;-60
2023/07/04 03:15:21;;;;;;;10.70;9.50;;;24.50;1.00;;;;;;5014287;28;20030;-60
2023/07/04 03:17:47;;;;;;;11.82;10.73;;;24.30;1.00;;;;;;5031652;28;20113;-59
2023/07/04 03:20:13;;;;;;;11.18;9.93;;;24.50;1.00;;;;;;5032421;28;20064;-59
2023/07/04 03:22:40;;;;;;;10.18;9.18;;;24.40;1.00;;;;;;5031802;28;20026;-60
2023/07/04 03:25:06;;;;;;;11.50;10.38;;;24.50;1.00;;;;;;5032597;28;20470;-59
2023/07/04 03:27:35;;;;;;;10.45;9.45;;;24.50;1.00;;;;;;5031459;28;20516;-59
2023/07/04 03:30:01;;;;;;;10.60;9.48;;;24.60;1.00;;;;;;5032299;28;20482;-59
2023/07/04 03:32:27;;;;;;;11.38;10.27;;;24.60;1.00;;;;;;5031127;28;20024;-59
2023/07/04 03:34:52;;;;;;;12.45;11.25;;;24.50;1.00;;;;;;5032605;28;20038;-59
2023/07/04 03:37:18;;;;;;;11.73;10.52;;;24.30;1.00;;;;;;5031633;28;20498;-59
2023/07/04 03:39:44;;;;;;;11.98;10.68;;;24.40;1.00;;;;;;5032422;28;20470;-59
2023/07/04 03:42:09;;;;;;;12.68;11.48;;;24.50;1.00;;;;;;5030523;28;20513;-60
2023/07/04 03:44:35;;;;;;;10.93;9.93;;;24.40;1.00;;;;;;5032321;28;20029;-60
2023/07/04 03:47:00;;;;;;;10.00;9.00;;;24.30;1.00;;;;;;5033401;28;20441;-59
2023/07/04 03:49:26;;;;;;;11.25;10.13;;;24.40;1.00;;;;;;5035911;28;20100;-60
2023/07/04 03:51:52;;;;;;;10.80;9.80;;;24.40;1.00;;;;;;5017460;28;20120;-59
2023/07/04 03:54:18;;;;;;;12.32;11.02;;;24.50;1.00;;;;;;5035723;28;20029;-59
2023/07/04 04:00:12;;;;;;;12.07;10.85;;;24.50;1.00;;;;;;5024191;28;20029;-59
2023/07/04 04:02:38;;;;;;;12.45;10.95;;;24.50;1.00;;;;;;5030057;28;20052;-60
2023/07/04 04:05:04;;;;;;;11.93;10.73;;;24.60;1.00;;;;;;5035810;28;20025;-60
2023/07/04 04:07:30;;;;;;;14.23;12.80;;;24.60;1.00;;;;;;5033686;28;20029;-59
2023/07/04 04:09:55;;;;;;;12.73;11.63;;;24.40;1.00;;;;;;5034580;28;20084;-59
2023/07/04 04:12:21;;;;;;;11.75;10.65;;;24.50;1.00;;;;;;5035410;28;20060;-60
2023/07/04 04:14:47;;;;;;;14.40;12.90;;;24.60;1.00;;;;;;5034782;28;20029;-60
2023/07/04 04:17:13;;;;;;;14.13;12.68;;;24.50;1.00;;;;;;5018181;28;20397;-59
2023/07/04 04:19:39;;;;;;;14.30;12.80;;;24.50;1.00;;;;;;5035455;28;20025;-59
2023/07/04 04:22:04;;;;;;;14.73;13.32;;;24.40;1.00;;;;;;5017241;28;20435;-59
2023/07/04 04:24:30;;;;;;;12.95;11.75;;;24.40;1.00;;;;;;5035334;28;20017;-59
2023/07/04 04:26:57;;;;;;;15.02;12.95;;;24.40;1.00;;;;;;5033061;28;20032;-60
2023/07/04 04:29:22;;;;;;;13.48;12.18;;;24.30;1.00;;;;;;5034998;28;20471;-59
2023/07/04 04:31:49;;;;;;;14.48;11.23;;;24.30;1.00;;;;;;5034225;28;20045;-59
2023/07/04 04:34:16;;;;;;;14.55;11.77;;;24.30;1.00;;;;;;5017183;28;20080;-60
2023/07/04 04:36:42;;;;;;;12.52;11.20;;;24.40;1.00;;;;;;5029793;28;20032;-59
2023/07/04 04:39:08;;;;;;;12.70;11.40;;;24.30;1.00;;;;;;5034992;28;20018;-59
2023/07/04 04:41:36;;;;;;;15.18;11.82;;;24.30;1.00;;;;;;5034475;28;20033;-59
2023/07/04 04:44:04;;;;;;;12.48;11.23;;;24.20;1.00;;;;;;5034037;28;20102;-60
2023/07/04 04:46:30;;;;;;;12.43;11.13;;;24.20;1.00;;;;;;5033899;28;20091;-59
2023/07/04 04:48:58;;;;;;;12.05;10.80;;;24.20;1.00;;;;;;5033154;28;20108;-59
2023/07/04 04:51:24;;;;;;;16.02;11.43;;;24.20;1.00;;;;;;5034650;28;20034;-60
2023/07/04 04:53:49;;;;;;;12.10;10.85;;;24.20;1.00;;;;;;5034112;28;20026;-59
2023/07/04 04:56:15;;;;;;;12.48;11.27;;;24.20;1.00;;;;;;5034402;28;20474;-59
2023/07/04 04:58:44;;;;;;;12.27;11.07;;;24.20;1.00;;;;;;5034035;28;20482;-59
2023/07/04 05:01:16;;;;;;;13.35;11.48;;;24.30;1.00;;;;;;5034076;28;20087;-59
2023/07/04 05:03:45;;;;;;;11.40;10.20;;;24.20;1.00;;;;;;5032430;28;20798;-59
2023/07/04 05:06:12;;;;;;;12.32;10.98;;;24.30;1.00;;;;;;5034312;28;20072;-59
2023/07/04 05:08:38;;;;;;;8.05;7.25;;;24.30;1.00;;;;;;5033655;28;20029;-60
2023/07/04 05:11:07;;;;;;;7.57;6.65;;;24.20;1.00;;;;;;5034340;28;20051;-59
2023/07/04 05:13:37;;;;;;;6.90;5.30;;;24.20;1.00;;;;;;5033654;28;20032;-59
2023/07/04 05:16:07;;;;;;;7.25;5.25;;;24.20;1.00;;;;;;5033571;28;20025;-59
2023/07/04 05:18:35;;;;;;;5.40;4.90;;;24.20;1.00;;;;;;5032626;28;20056;-60
2023/07/04 05:21:06;;;;;;;4.88;4.38;;;24.30;1.00;;;;;;5034172;28;20437;-60
2023/07/04 05:23:34;;;;;;;6.93;4.18;;;24.30;1.00;;;;;;5032374;28;20036;-60
2023/07/04 05:26:09;;;;;;;4.18;3.78;;;24.30;1.00;;;;;;5025622;28;20041;-60
2023/07/04 05:28:35;;;;;;;4.75;4.25;;;24.30;1.00;;;;;;5029183;28;20022;-59
2023/07/04 05:31:06;;;;;;;4.43;3.83;;;24.30;1.00;;;;;;5024163;28;20119;-60
2023/07/04 05:33:35;;;;;;;4.53;3.83;;;24.20;1.00;;;;;;5033253;28;20075;-59
2023/07/04 05:36:18;;;;;;;5.15;3.97;;;24.40;1.00;;;;;;5019628;28;20021;-60
2023/07/04 05:38:48;;;;;;;4.30;3.60;;;24.60;1.00;;;;;;5033381;28;20029;-60
2023/07/04 05:41:16;;;;;;;5.85;4.53;;;24.70;1.00;;;;;;5031685;28;20033;-60
2023/07/04 05:43:42;;;;;;;4.55;3.72;;;24.10;1.00;;;;;;5027126;28;20537;-59
2023/07/04 05:46:10;;;;;;;4.18;3.78;;;24.30;1.00;;;;;;5033105;28;20060;-59
2023/07/04 05:48:36;;;;;;;4.82;3.60;;;24.40;1.00;;;;;;5033617;28;20547;-59
2023/07/04 05:51:07;;;;;;;4.55;3.08;;;24.40;1.00;;;;;;5033099;28;20090;-59
2023/07/04 05:53:35;;;;;;;2.60;2.40;;;24.40;1.00;;;;;;5026640;28;20037;-58
2023/07/04 05:56:16;;;;;;;2.90;2.53;;;24.40;1.00;;;;;;5033610;28;20164;-59
2023/07/04 05:58:44;;;;;;;3.65;2.85;;;24.40;1.00;;;;;;5024308;28;20041;-59
2023/07/04 06:01:18;;;;;;;4.75;2.92;;;24.40;1.00;;;;;;5032500;28;20036;-59
2023/07/04 06:03:44;;;;;;;4.53;2.75;;;24.40;1.00;;;;;;5033355;28;20152;-59
2023/07/04 06:06:32;;;;;;;6.25;3.00;;;24.40;1.00;;;;;;5032034;28;20490;-59
2023/07/04 06:09:00;;;;;;;2.67;2.47;;;24.50;1.00;;;;;;5025114;28;20060;-59
2023/07/04 06:11:30;;;;;;;2.72;2.53;;;24.40;1.00;;;;;;5033017;28;20510;-59
2023/07/04 06:13:56;;;;;;;2.92;2.63;;;24.40;1.00;;;;;;5032781;28;20054;-59
2023/07/04 06:16:22;;;;;;;5.43;2.70;;;24.50;1.00;;;;;;5033130;28;20069;-59
2023/07/04 06:18:48;;;;;;;6.22;2.63;;;24.50;1.00;;;;;;5032533;28;20030;-59
2023/07/04 06:21:16;;;;;;;6.30;2.60;;;24.60;1.00;;;;;;5031871;28;20034;-59
2023/07/04 06:23:43;;;;;;;7.22;3.30;;;24.70;1.00;;;;;;5032574;28;20041;-59
2023/07/04 06:26:10;;;;;;;4.00;2.90;;;24.60;1.00;;;;;;5032165;28;20352;-59
2023/07/04 06:28:36;;;;;;;4.28;2.83;;;24.70;1.00;;;;;;5015059;28;20370;-59
2023/07/04 06:31:07;;;;;;;3.50;2.70;;;24.70;1.00;;;;;;5030807;28;20048;-59
2023/07/04 06:33:33;;;;;;;6.22;2.78;;;24.80;1.00;;;;;;5029419;28;20149;-59
2023/07/04 06:36:00;;;;;;;3.35;2.72;;;24.70;1.00;;;;;;5032694;28;20038;-58
2023/07/04 06:38:26;;;;;;;4.45;2.60;;;24.70;99.90;;;;;;5031730;28;20124;-58
2023/07/04 06:40:56;;;;;;;3.20;2.70;;;24.60;1.00;;;;;;5031997;28;20104;-59
2023/07/04 06:43:23;;;;;;;4.63;2.95;;;24.60;1.00;;;;;;5031180;28;20096;-59
2023/07/04 06:45:49;;;;;;;4.32;2.45;;;24.80;1.00;;;;;;5032673;28;20025;-60
2023/07/04 06:48:14;;;;;;;4.20;2.28;;;24.60;1.00;;;;;;5032693;28;20391;-58
2023/07/04 06:50:42;;;;;;;9.15;3.22;;;24.70;1.00;;;;;;5031280;28;20096;-59
2023/07/04 06:53:08;;;;;;;3.83;2.88;;;24.70;1.00;;;;;;5032808;28;20071;-59
2023/07/04 06:55:33;;;;;;;7.05;3.10;;;24.70;1.00;;;;;;5031230;28;20033;-59
2023/07/04 06:57:59;;;;;;;8.05;3.35;;;24.70;1.00;;;;;;5032632;28;20033;-60
2023/07/04 07:00:25;;;;;;;4.28;2.70;;;24.80;1.00;;;;;;5031420;28;20036;-59
2023/07/04 07:02:50;;;;;;;4.57;2.70;;;24.80;1.00;;;;;;5013477;28;20091;-59
2023/07/04 07:05:17;;;;;;;5.20;2.95;;;24.80;99.90;;;;;;5023691;28;20032;-64
2023/07/04 07:07:43;;;;;;;6.07;2.83;;;24.90;99.90;;;;;;5032517;28;20021;-65
2023/07/04 07:10:09;;;;;;;2.50;2.30;;;25.00;99.90;;;;;;5032014;28;20033;-63
2023/07/04 07:12:34;;;;;;;3.65;2.58;;;25.10;99.90;;;;;;5031733;28;20395;-65
2023/07/04 07:15:00;;;;;;;3.25;2.40;;;25.30;99.90;;;;;;5032606;28;20025;-58
2023/07/04 07:17:26;;;;;;;2.83;2.40;;;25.40;99.90;;;;;;5031814;28;20401;-58
2023/07/04 07:19:51;;;;;;;3.83;2.90;;;25.90;99.90;;;;;;5033331;28;20017;-59
2023/07/04 07:22:17;;;;;;;5.22;3.00;;;25.90;99.90;;;;;;5018894;28;20037;-61
2023/07/04 07:24:43;;;;;;;3.22;2.83;;;25.90;99.90;;;;;;5035210;28;20022;-60
2023/07/04 07:27:08;;;;;;;3.40;2.80;;;26.10;99.90;;;;;;5035906;28;20053;-58
2023/07/04 07:29:34;;;;;;;2.90;2.70;;;26.20;99.90;;;;;;5018497;28;20044;-61
2023/07/04 07:32:05;;;;;;;5.32;2.75;;;26.40;99.90;;;;;;5034324;28;20057;-59
2023/07/04 07:34:30;;;;;;;3.88;2.80;;;26.50;99.90;;;;;;5035778;28;20036;-61
2023/07/04 07:36:56;;;;;;;4.25;3.03;;;26.60;99.90;;;;;;5034066;28;20033;-59
2023/07/04 07:39:22;;;;;;;4.05;2.80;;;26.80;99.90;;;;;;5034838;28;20490;-59
2023/07/04 07:41:48;;;;;;;4.20;3.63;;;26.80;99.90;;;;;;5030198;28;20487;-57
2023/07/04 07:44:16;;;;;;;5.70;3.35;;;27.00;99.90;;;;;;5035735;28;20100;-58
2023/07/04 07:46:43;;;;;;;3.60;3.30;;;27.10;99.90;;;;;;5030546;28;20026;-58
2023/07/04 07:49:09;;;;;;;3.42;3.13;;;27.20;99.90;;;;;;5032200;28;20029;-58
2023/07/04 07:51:37;;;;;;;4.47;2.97;;;27.30;99.90;;;;;;5018022;28;20375;-58
2023/07/04 07:54:06;;;;;;;5.32;2.80;;;27.20;99.90;;;;;;5035629;28;20364;-58
2023/07/04 07:56:40;;;;;;;3.47;3.10;;;27.20;99.90;;;;;;5034372;28;20033;-58
2023/07/04 07:59:06;;;;;;;6.03;3.50;;;27.10;99.90;;;;;;5035550;28;20034;-58
2023/07/04 08:01:33;;;;;;;5.40;4.28;;;27.20;99.90;;;;;;5003527;28;20022;-60
2023/07/04 08:04:00;;;;;;;4.93;4.10;;;27.00;99.90;;;;;;5034835;28;20391;-60
2023/07/04 08:06:42;;;;;;;5.78;4.20;;;27.60;99.90;;;;;;5033771;28;20029;-60
2023/07/04 08:09:10;;;;;;;5.20;4.43;;;27.40;99.90;;;;;;5020619;28;20017;-60
2023/07/04 08:11:37;;;;;;;4.90;4.13;;;27.80;99.90;;;;;;5031286;28;20086;-59
2023/07/04 08:14:03;;;;;;;4.63;4.22;;;27.70;99.90;;;;;;5032611;28;20029;-59
2023/07/04 08:16:31;;;;;;;4.82;3.38;;;28.20;99.90;;;;;;5029495;28;20052;-59
2023/07/04 08:18:59;;;;;;;4.40;4.00;;;28.30;99.90;;;;;;5034763;28;20033;-59
2023/07/04 08:21:27;;;;;;;6.35;3.97;;;28.00;99.90;;;;;;5031986;28;20382;-59
2023/07/04 08:23:54;;;;;;;3.97;3.60;;;28.20;99.90;;;;;;5033538;28;20390;-59
2023/07/04 08:26:22;;;;;;;5.97;3.97;;;28.10;99.90;;;;;;5034159;28;20451;-63
2023/07/04 08:28:48;;;;;;;4.03;3.72;;;27.80;99.90;;;;;;5032333;28;20040;-66
2023/07/04 08:31:17;;;;;;;3.20;2.97;;;28.20;99.90;;;;;;5026795;28;20041;-63
2023/07/04 08:33:44;;;;;;;3.80;3.15;;;28.50;99.90;;;;;;5019719;28;20028;-60
2023/07/04 08:36:10;;;;;;;4.20;3.10;;;28.70;99.90;;;;;;5016708;28;20033;-61
2023/07/04 08:38:36;;;;;;;3.53;2.88;;;28.30;99.90;;;;;;5033409;28;20025;-68
2023/07/04 08:41:02;;;;;;;5.82;3.25;;;28.40;99.90;;;;;;5035487;28;20025;-68
2023/07/04 08:43:40;;;;;;;3.35;3.05;;;28.60;99.90;;;;;;5036544;28;20025;-71
2023/07/04 08:46:09;;;;;;;3.80;3.47;;;28.70;99.90;;;;;;5029204;28;20036;-59
2023/07/04 08:48:37;;;;;;;7.20;3.95;;;28.50;99.90;;;;;;5033517;28;20525;-62
2023/07/04 08:51:03;;;;;;;4.53;2.88;;;28.80;99.90;;;;;;5033764;28;20036;-59
2023/07/04 08:53:31;;;;;;;6.38;3.25;;;28.50;99.90;;;;;;5034826;28;20025;-60
2023/07/04 08:56:27;;;;;;;3.70;3.22;;;28.00;99.90;;;;;;5033980;28;20025;-59
2023/07/04 08:59:05;;;;;;;4.72;2.88;;;28.10;99.90;;;;;;5042139;28;20025;-59
2023/07/04 09:01:58;;;;;;;5.60;3.15;;;28.20;99.90;;;;;;5033776;28;20454;-59
2023/07/04 09:04:46;;;;;;;3.08;2.83;;;28.10;99.90;;;;;;5034311;28;20124;-63
2023/07/04 09:10:51;;;;;;;3.08;2.70;;;27.80;99.90;;;;;;5027895;28;20088;-63
2023/07/04 09:13:36;;;;;;;3.55;2.47;;;27.90;99.90;;;;;;5032276;28;20056;-62
2023/07/04 09:16:07;;;;;;;4.38;2.83;;;28.00;99.90;;;;;;5033957;28;20033;-62
2023/07/04 09:18:42;;;;;;;4.10;2.72;;;27.80;99.90;;;;;;5030793;28;20536;-63
2023/07/04 09:21:10;;;;;;;4.80;3.05;;;28.00;99.90;;;;;;5035619;28;20064;-64
2023/07/04 09:23:36;;;;;;;3.83;3.28;;;27.80;99.90;;;;;;5036727;28;20027;-63
2023/07/04 09:26:02;;;;;;;4.30;3.30;;;27.60;99.90;;;;;;5015233;28;20025;-64
2023/07/04 09:28:28;;;;;;;5.25;2.90;;;27.70;99.90;;;;;;5016133;28;20057;-63
2023/07/04 09:30:58;;;;;;;4.22;3.28;;;27.90;99.90;;;;;;5033492;28;20434;-68
2023/07/04 09:33:25;;;;;;;4.65;3.47;;;27.90;99.90;;;;;;5033178;28;20037;-60
2023/07/04 09:35:50;;;;;;;3.22;2.92;;;27.90;99.90;;;;;;5034322;28;20057;-59
2023/07/04 09:38:16;;;;;;;5.15;3.03;;;27.90;99.90;;;;;;5031999;28;20064;-62
2023/07/04 09:40:52;;;;;;;4.60;3.75;;;28.10;99.90;;;;;;5033533;28;20032;-61
2023/07/04 09:43:28;;;;;;;4.85;3.55;;;28.00;99.90;;;;;;5032870;28;20108;-61
2023/07/04 09:46:17;;;;;;;4.28;2.95;;;28.10;99.90;;;;;;5021828;28;20022;-60
2023/07/04 09:48:43;;;;;;;4.15;3.33;;;28.00;99.90;;;;;;5029529;28;20022;-61
2023/07/04 09:51:24;;;;;;;4.60;2.90;;;28.10;99.90;;;;;;5032817;28;20103;-62
2023/07/04 09:53:58;;;;;;;3.15;2.85;;;28.50;99.90;;;;;;5031759;28;20076;-60
2023/07/04 09:56:27;;;;;;;4.20;3.10;;;28.50;99.90;;;;;;5031821;28;20104;-57
2023/07/04 09:59:22;;;;;;;3.85;2.65;;;28.60;99.90;;;;;;5017780;28;20124;-60
2023/07/04 10:01:50;;;;;;;3.58;3.03;;;28.90;99.90;;;;;;5018806;28;20038;-60
2023/07/04 10:04:32;;;;;;;3.25;3.05;;;29.20;99.90;;;;;;5025324;28;20429;-60
2023/07/04 10:06:59;;;;;;;3.28;3.03;;;29.00;99.90;;;;;;5028015;28;20075;-61
2023/07/04 10:09:26;;;;;;;3.50;3.20;;;29.10;99.90;;;;;;5027991;28;20505;-60
2023/07/04 10:12:12;;;;;;;4.00;2.85;;;29.00;99.90;;;;;;5031625;28;20045;-62
2023/07/04 10:14:48;;;;;;;4.90;3.40;;;28.80;99.90;;;;;;5028807;28;20044;-62
2023/07/04 10:17:29;;;;;;;4.97;3.33;;;28.70;99.90;;;;;;5029802;28;20056;-58
2023/07/04 10:19:57;;;;;;;3.75;2.80;;;28.30;99.90;;;;;;5028626;28;20030;-60
2023/07/04 10:22:30;;;;;;;3.45;3.03;;;28.70;99.90;;;;;;5029918;28;20124;-59
2023/07/04 10:24:58;;;;;;;5.00;3.17;;;28.70;99.90;;;;;;5029977;28;20478;-60
2023/07/04 10:27:37;;;;;;;4.22;3.83;;;28.70;99.90;;;;;;5029168;28;20433;-60
2023/07/04 10:30:08;;;;;;;5.70;3.60;;;28.60;99.90;;;;;;5032884;28;20498;-60
2023/07/04 10:32:45;;;;;;;5.35;3.30;;;28.70;99.90;;;;;;5031130;28;20038;-62
2023/07/04 10:35:15;;;;;;;3.25;2.95;;;29.10;99.90;;;;;;5024175;28;20030;-59
2023/07/04 10:37:44;;;;;;;3.85;2.92;;;28.90;99.90;;;;;;5027930;28;20080;-60
2023/07/04 10:40:14;;;;;;;3.22;2.92;;;28.90;99.90;;;;;;5032865;28;20574;-59
2023/07/04 10:42:57;;;;;;;5.45;3.33;;;29.00;99.90;;;;;;5029240;28;20497;-63
2023/07/04 10:45:26;;;;;;;6.22;3.97;;;29.10;99.90;;;;;;5021130;28;20044;-59
2023/07/04 10:47:54;;;;;;;3.83;3.25;;;29.70;99.90;;;;;;5030817;28;20026;-58
2023/07/04 10:50:33;;;;;;;3.28;2.65;;;29.40;99.90;;;;;;5031272;28;20270;-58
2023/07/04 10:52:59;;;;;;;4.55;3.10;;;29.30;99.90;;;;;;5032182;28;20032;-57
2023/07/04 10:55:41;;;;;;;3.67;3.33;;;30.10;99.90;;;;;;5036140;28;20363;-57
2023/07/04 10:58:14;;;;;;;3.53;3.22;;;30.20;99.90;;;;;;5035714;28;20467;-58
2023/07/04 11:00:48;;;;;;;3.05;2.85;;;30.30;99.90;;;;;;5040098;28;20033;-58
2023/07/04 11:03:21;;;;;;;;;;;30.50;99.90;;;;;;5037135;28;20049;-58
2023/07/04 11:05:50;;;;;;;3.25;2.90;;;30.50;99.90;;;;;;5036717;28;20243;-58
2023/07/04 11:08:19;;;;;;;3.83;3.33;;;30.50;99.90;;;;;;5035506;28;20029;-58
2023/07/04 11:10:56;;;;;;;3.83;2.60;;;30.80;99.90;;;;;;5037560;28;20490;-57
2023/07/04 11:13:24;;;;;;;4.05;3.17;;;31.10;99.90;;;;;;5035671;28;20021;-59
2023/07/04 11:16:03;;;;;;;2.85;2.65;;;30.90;99.90;;;;;;5038680;28;20376;-59
2023/07/04 11:18:32;;;;;;;4.30;3.90;;;30.90;99.90;;;;;;5039438;28;20080;-58
2023/07/04 11:21:12;;;;;;;11.43;3.10;;;31.10;99.90;;;;;;5033654;28;20031;-59
2023/07/04 11:23:53;;;;;;;5.75;3.00;;;31.30;99.90;;;;;;5036781;28;20029;-58
2023/07/04 11:26:40;;;;;;;3.75;3.17;;;31.10;99.90;;;;;;5035346;28;20028;-58
2023/07/04 11:29:08;;;;;;;6.45;3.72;;;31.20;99.90;;;;;;5037113;28;20025;-58
2023/07/04 11:31:54;;;;;;;4.40;3.40;;;32.70;99.90;;;;;;5034949;28;20044;-59
2023/07/04 11:34:19;;;;;;;4.10;3.80;;;32.10;99.90;;;;;;5039140;28;20518;-58
2023/07/04 11:36:55;;;;;;;5.15;3.22;;;33.60;99.90;;;;;;5036185;28;20022;-59
2023/07/04 11:39:28;;;;;;;4.57;3.20;;;33.80;99.90;;;;;;5035047;28;20057;-58
2023/07/04 11:41:55;;;;;;;3.15;2.92;;;33.20;99.90;;;;;;5037070;28;20022;-58
2023/07/04 11:44:30;;;;;;;7.85;3.83;;;32.80;99.90;;;;;;5036147;28;20032;-58
2023/07/04 11:47:06;;;;;;;3.90;3.60;;;33.00;99.90;;;;;;5038831;28;20437;-58
2023/07/04 11:49:33;;;;;;;5.18;3.72;;;32.90;99.90;;;;;;5032025;28;20017;-58
2023/07/04 11:52:20;;;;;;;6.15;3.20;;;33.60;99.90;;;;;;5031432;28;20036;-58
2023/07/04 11:54:55;;;;;;;4.50;3.50;;;34.00;99.90;;;;;;5034656;28;20029;-59
2023/07/04 11:57:21;;;;;;;3.95;3.53;;;33.30;99.90;;;;;;5036774;28;20486;-58
2023/07/04 11:59:47;;;;;;;4.82;3.67;;;34.20;99.90;;;;;;5037333;28;20021;-58
2023/07/04 12:02:24;;;;;;;4.38;3.97;;;35.10;99.90;;;;;;5037865;28;20029;-59
2023/07/04 12:04:51;;;;;;;4.53;3.63;;;36.80;99.90;;;;;;5038579;28;20073;-59
2023/07/04 12:07:19;;;;;;;5.82;3.97;;;37.90;99.90;;;;;;5034036;28;20478;-59
2023/07/04 12:10:03;;;;;;;4.22;3.83;;;40.40;99.90;;;;;;5035722;28;20017;-58
2023/07/04 12:12:30;;;;;;;;;;;40.70;99.90;;;;;;5036804;28;20037;-59
2023/07/04 12:15:26;;;;;;;4.68;4.07;;;40.50;99.90;;;;;;5037188;28;19954;-58
2023/07/04 12:17:54;;;;;;;4.10;3.80;;;39.50;99.90;;;;;;5028176;28;20490;-59
2023/07/04 12:20:21;;;;;;;7.07;4.57;;;37.90;99.90;;;;;;5036950;28;20067;-59
2023/07/04 12:22:58;;;;;;;4.03;3.67;;;36.90;99.90;;;;;;5027399;28;20029;-59
2023/07/04 12:25:23;;;;;;;5.53;3.90;;;36.40;99.90;;;;;;5030356;28;20084;-59
2023/07/04 12:27:52;;;;;;;5.45;4.00;;;36.70;99.90;;;;;;5035279;28;20463;-59
2023/07/04 12:30:18;;;;;;;5.38;5.00;;;38.10;99.90;;;;;;5032220;28;20127;-59
2023/07/04 12:32:47;;;;;;;6.55;4.60;;;37.70;99.90;;;;;;5032996;28;20483;-58
2023/07/04 12:35:16;;;;;;;4.20;3.92;;;37.20;99.90;;;;;;5036305;28;20028;-59
2023/07/04 12:37:49;;;;;;;9.48;4.47;;;37.50;99.90;;;;;;5033179;28;20033;-59
2023/07/04 12:40:20;;;;;;;4.30;4.00;;;37.50;99.90;;;;;;5032713;28;20022;-59
2023/07/04 12:42:46;;;;;;;4.90;4.38;;;37.10;99.90;;;;;;5032707;28;20022;-59
2023/07/04 12:45:24;;;;;;;4.70;4.10;;;36.20;99.90;;;;;;5031618;28;20032;-59
2023/07/04 12:47:52;;;;;;;4.85;4.13;;;35.90;99.90;;;;;;5034006;28;20025;-59
2023/07/04 12:50:19;;;;;;;6.32;4.32;;;37.70;99.90;;;;;;5037468;28;20486;-59
2023/07/04 12:52:49;;;;;;;5.93;4.50;;;38.50;99.90;;;;;;5033362;28;20033;-59
2023/07/04 12:55:34;;;;;;;4.95;4.28;;;38.70;99.90;;;;;;5026596;28;20443;-59
2023/07/04 12:58:03;;;;;;;4.50;4.03;;;37.90;99.90;;;;;;5027163;28;20124;-58
2023/07/04 13:00:31;;;;;;;4.47;4.18;;;36.20;99.90;;;;;;5031318;28;20034;-59
2023/07/04 13:03:09;;;;;;;4.80;4.50;;;35.90;99.90;;;;;;5023980;28;20045;-60
2023/07/04 13:05:51;;;;;;;5.18;4.13;;;35.60;99.90;;;;;;5025889;28;20020;-60
2023/07/04 13:08:29;;;;;;;4.43;4.05;;;35.60;99.90;;;;;;5025554;28;20124;-61